createdAt,value
2022-12-22T00:01:16.356Z,11.00
2022-12-22T00:04:01.815Z,12.98
2022-12-22T00:06:46.777Z,13.15
2022-12-22T00:09:31.948Z,14.98
2022-12-22T00:12:17.117Z,12.68
2022-12-22T00:15:04.257Z,11.60
2022-12-22T00:17:49.469Z,13.90
2022-12-22T00:20:38.219Z,14.25
2022-12-22T00:23:23.995Z,15.27
2022-12-22T00:26:09.283Z,11.70
2022-12-22T00:28:55.334Z,13.00
2022-12-22T00:31:41.534Z,13.50
2022-12-22T00:34:40.021Z,14.77
2022-12-22T00:37:30.323Z,15.80
2022-12-22T00:40:16.557Z,14.57
2022-12-22T00:43:01.893Z,14.98
2022-12-22T00:45:47.806Z,12.27
2022-12-22T00:48:43.826Z,17.65
2022-12-22T00:51:30.124Z,13.65
2022-12-22T00:54:15.305Z,14.90
2022-12-22T00:57:00.860Z,11.13
2022-12-22T00:59:47.120Z,12.52
2022-12-22T01:02:32.157Z,14.05
2022-12-22T01:05:17.305Z,11.90
2022-12-22T01:08:02.554Z,14.07
2022-12-22T01:10:47.796Z,15.48
2022-12-22T01:13:34.069Z,12.15
2022-12-22T01:16:19.690Z,13.52
2022-12-22T01:19:04.947Z,15.80
2022-12-22T01:21:50.370Z,14.13
2022-12-22T01:24:37.005Z,14.68
2022-12-22T01:27:23.316Z,16.23
2022-12-22T01:30:08.467Z,14.02
2022-12-22T01:32:53.533Z,14.20
2022-12-22T01:35:45.298Z,14.35
2022-12-22T01:38:30.501Z,18.90
2022-12-22T01:41:17.328Z,16.35
2022-12-22T01:44:02.686Z,17.15
2022-12-22T01:46:51.116Z,16.27
2022-12-22T01:50:01.331Z,21.35
2022-12-22T01:52:52.244Z,15.88
2022-12-22T01:55:41.679Z,15.85
2022-12-22T01:58:39.050Z,16.92
2022-12-22T02:01:24.417Z,15.88
2022-12-22T02:04:09.734Z,14.50
2022-12-22T02:07:00.444Z,15.35
2022-12-22T02:10:13.116Z,17.02
2022-12-22T02:13:15.924Z,14.68
2022-12-22T02:16:11.835Z,15.63
2022-12-22T02:19:13.239Z,16.50
2022-12-22T02:22:21.838Z,16.65
2022-12-22T02:25:20.086Z,18.10
2022-12-22T02:28:06.740Z,18.75
2022-12-22T02:30:53.240Z,20.77
2022-12-22T02:33:39.511Z,19.70
2022-12-22T02:36:43.119Z,15.52
2022-12-22T02:40:12.106Z,19.05
2022-12-22T02:43:15.924Z,18.58
2022-12-22T02:46:16.438Z,18.08
2022-12-22T02:49:23.304Z,18.90
2022-12-22T02:52:21.209Z,17.08
2022-12-22T02:55:06.441Z,16.98
2022-12-22T02:57:53.297Z,21.23
2022-12-22T03:00:38.453Z,17.73
2022-12-22T03:03:24.279Z,15.80
2022-12-22T03:06:09.540Z,22.75
2022-12-22T03:08:54.827Z,19.38
2022-12-22T03:11:39.882Z,18.35
2022-12-22T03:14:24.863Z,17.48
2022-12-22T03:17:10.050Z,17.92
2022-12-22T03:19:55.269Z,18.67
2022-12-22T03:22:40.745Z,18.67
2022-12-22T03:25:26.423Z,16.70
2022-12-22T03:27:53.040Z,18.98
2022-12-22T03:30:20.024Z,15.02
2022-12-22T03:32:46.684Z,18.88
2022-12-22T03:35:13.357Z,17.20
2022-12-22T03:37:39.999Z,18.73
2022-12-22T03:40:07.443Z,19.90
2022-12-22T03:42:52.256Z,18.42
2022-12-22T03:45:37.310Z,17.10
2022-12-22T03:48:03.982Z,19.10
2022-12-22T03:50:30.707Z,17.30
2022-12-22T03:52:57.407Z,21.08
2022-12-22T03:55:24.026Z,17.17
2022-12-22T03:57:50.635Z,19.48
2022-12-22T04:00:17.465Z,20.00
2022-12-22T04:02:44.335Z,18.70
2022-12-22T04:05:11.421Z,21.10
2022-12-22T04:07:38.117Z,15.27
2022-12-22T04:11:01.256Z,19.70
2022-12-22T04:13:27.799Z,18.13
2022-12-22T04:15:54.416Z,13.32
2022-12-22T04:18:21.053Z,17.67
2022-12-22T04:20:48.936Z,18.92
2022-12-22T04:23:15.562Z,16.80
2022-12-22T04:25:42.128Z,15.43
2022-12-22T04:28:08.647Z,19.80
2022-12-22T04:30:35.231Z,15.65
2022-12-22T04:33:01.884Z,19.30
2022-12-22T04:35:28.457Z,18.40
2022-12-22T04:37:55.091Z,15.93
2022-12-22T04:40:21.672Z,18.48
2022-12-22T04:42:48.263Z,17.08
2022-12-22T04:45:14.897Z,16.65
2022-12-22T04:47:41.474Z,17.10
2022-12-22T04:50:08.576Z,17.20
2022-12-22T04:52:35.227Z,16.45
2022-12-22T04:55:01.840Z,15.20
2022-12-22T04:57:28.517Z,18.27
2022-12-22T04:59:55.299Z,14.38
2022-12-22T05:02:22.142Z,14.05
2022-12-22T05:04:48.803Z,15.25
2022-12-22T05:07:15.422Z,16.02
2022-12-22T05:09:42.010Z,19.70
2022-12-22T05:12:27.224Z,15.68
2022-12-22T05:14:53.809Z,17.42
2022-12-22T05:17:20.343Z,16.05
2022-12-22T05:19:47.076Z,14.13
2022-12-22T05:22:13.701Z,17.85
2022-12-22T05:24:40.266Z,15.48
2022-12-22T05:27:06.925Z,14.23
2022-12-22T05:29:33.667Z,14.65
2022-12-22T05:32:00.186Z,14.88
2022-12-22T05:34:26.869Z,15.95
2022-12-22T05:36:53.471Z,12.82
2022-12-22T05:39:20.122Z,13.77
2022-12-22T05:41:46.828Z,12.65
2022-12-22T05:44:13.328Z,12.68
2022-12-22T05:46:39.947Z,15.43
2022-12-22T05:49:06.606Z,12.80
2022-12-22T05:51:33.138Z,15.35
2022-12-22T05:53:59.674Z,15.65
2022-12-22T05:56:26.326Z,14.65
2022-12-22T05:58:52.853Z,13.68
2022-12-22T06:01:19.444Z,14.90
2022-12-22T06:03:46.143Z,12.68
2022-12-22T06:06:13.037Z,12.35
2022-12-22T06:08:39.689Z,14.63
2022-12-22T06:11:06.206Z,16.27
2022-12-22T06:13:32.763Z,14.38
2022-12-22T06:15:59.325Z,13.85
2022-12-22T06:18:25.906Z,13.95
2022-12-22T06:20:53.431Z,11.88
2022-12-22T06:23:21.261Z,14.65
2022-12-22T06:25:58.876Z,13.50
2022-12-22T06:28:26.212Z,13.77
2022-12-22T06:30:53.262Z,14.05
2022-12-22T06:33:20.248Z,14.15
2022-12-22T06:35:50.903Z,15.63
2022-12-22T06:38:24.010Z,15.82
2022-12-22T06:40:50.586Z,13.00
2022-12-22T06:43:17.138Z,11.98
2022-12-22T06:45:44.396Z,13.50
2022-12-22T06:48:12.805Z,13.25
2022-12-22T06:50:40.285Z,12.27
2022-12-22T06:53:08.105Z,13.25
2022-12-22T06:55:35.408Z,10.45
2022-12-22T06:58:02.259Z,10.57
2022-12-22T07:00:29.008Z,9.95
2022-12-22T07:02:55.881Z,9.93
2022-12-22T07:05:25.940Z,10.43
2022-12-22T07:07:53.182Z,9.68
2022-12-22T07:10:39.953Z,8.13
2022-12-22T07:13:19.365Z,10.48
2022-12-22T07:15:48.150Z,9.25
2022-12-22T07:18:17.447Z,7.38
2022-12-22T07:20:44.185Z,8.38
2022-12-22T07:23:11.583Z,7.05
2022-12-22T07:25:38.514Z,7.07
2022-12-22T07:28:06.925Z,6.68
2022-12-22T07:30:34.107Z,5.40
2022-12-22T07:33:00.681Z,7.65
2022-12-22T07:35:27.317Z,6.07
2022-12-22T07:37:53.889Z,4.47
2022-12-22T07:40:20.471Z,5.53
2022-12-22T07:42:47.129Z,5.50
2022-12-22T07:45:17.793Z,4.82
2022-12-22T07:47:45.610Z,5.72
2022-12-22T07:50:26.172Z,6.32
2022-12-22T07:52:53.031Z,4.60
2022-12-22T07:55:20.256Z,5.30
2022-12-22T07:57:47.128Z,4.75
2022-12-22T08:00:15.552Z,3.58
2022-12-22T08:02:43.292Z,4.65
2022-12-22T08:05:10.317Z,4.20
2022-12-22T08:07:38.101Z,5.05
2022-12-22T08:10:05.130Z,5.32
2022-12-22T08:12:32.782Z,7.95
2022-12-22T08:14:59.702Z,4.78
2022-12-22T08:17:27.664Z,4.28
2022-12-22T08:19:55.356Z,2.58
2022-12-22T08:22:25.908Z,5.28
2022-12-22T08:24:54.375Z,2.95
2022-12-22T08:27:51.815Z,4.00
2022-12-22T08:30:18.586Z,4.30
2022-12-22T08:32:48.876Z,2.65
2022-12-22T08:35:16.000Z,4.63
2022-12-22T08:37:45.800Z,1.85
2022-12-22T08:40:16.989Z,2.72
2022-12-22T08:42:44.130Z,2.78
2022-12-22T08:45:11.515Z,3.67
2022-12-22T08:47:38.694Z,3.60
2022-12-22T08:50:06.238Z,2.75
2022-12-22T08:52:32.928Z,3.13
2022-12-22T08:54:59.756Z,3.17
2022-12-22T08:57:26.646Z,5.93
2022-12-22T08:59:53.292Z,5.65
2022-12-22T09:02:20.040Z,3.90
2022-12-22T09:04:46.902Z,6.15
2022-12-22T09:07:13.697Z,4.03
2022-12-22T09:09:40.424Z,6.03
2022-12-22T09:12:07.556Z,3.53
2022-12-22T09:14:34.331Z,6.45
2022-12-22T09:17:01.219Z,3.60
2022-12-22T09:19:28.028Z,4.25
2022-12-22T09:21:55.094Z,5.40
2022-12-22T09:24:21.711Z,4.00
2022-12-22T09:26:48.368Z,2.00
2022-12-22T09:29:15.754Z,3.08
2022-12-22T09:31:43.338Z,3.28
2022-12-22T09:34:16.864Z,1.67
2022-12-22T09:36:44.627Z,5.35
2022-12-22T09:39:11.378Z,1.98
2022-12-22T09:41:47.858Z,3.83
2022-12-22T09:44:34.280Z,5.95
2022-12-22T09:47:04.710Z,5.38
2022-12-22T09:49:31.304Z,4.45
2022-12-22T09:52:01.136Z,7.60
2022-12-22T09:54:29.247Z,3.33
2022-12-22T09:56:56.610Z,3.35
2022-12-22T09:59:27.545Z,5.05
2022-12-22T10:02:20.412Z,4.05
2022-12-22T10:04:47.101Z,3.63
2022-12-22T10:07:33.466Z,3.83
2022-12-22T10:10:30.375Z,2.00
2022-12-22T10:13:00.301Z,2.92
2022-12-22T10:15:33.933Z,5.28
2022-12-22T10:18:28.064Z,3.83
2022-12-22T10:21:13.086Z,4.18
2022-12-22T10:23:47.227Z,5.20
2022-12-22T10:26:31.151Z,2.13
2022-12-22T10:29:07.664Z,3.28
2022-12-22T10:31:36.534Z,2.50
2022-12-22T10:34:17.969Z,2.25
2022-12-22T10:36:49.451Z,3.22
2022-12-22T10:39:22.747Z,5.70
2022-12-22T10:41:51.848Z,4.75
2022-12-22T10:44:26.054Z,2.55
2022-12-22T10:46:55.654Z,2.58
2022-12-22T10:49:26.497Z,2.65
2022-12-22T10:51:55.107Z,2.10
2022-12-22T10:54:27.552Z,4.03
2022-12-22T10:57:23.853Z,2.10
2022-12-22T10:59:57.151Z,3.35
2022-12-22T11:02:32.463Z,2.55
2022-12-22T11:05:10.935Z,2.45
2022-12-22T11:07:40.009Z,2.47
2022-12-22T11:10:42.677Z,1.83
2022-12-22T11:13:34.217Z,2.45
2022-12-22T11:16:14.902Z,4.65
2022-12-22T11:19:01.667Z,2.13
2022-12-22T11:21:49.673Z,4.18
2022-12-22T11:24:32.762Z,2.53
2022-12-22T11:27:14.586Z,1.35
2022-12-22T11:30:02.960Z,3.53
2022-12-22T11:33:02.505Z,3.45
2022-12-22T11:35:29.221Z,4.43
2022-12-22T11:38:31.079Z,2.72
2022-12-22T11:41:05.590Z,4.13
2022-12-22T11:43:35.291Z,4.40
2022-12-22T11:46:13.833Z,4.90
2022-12-22T11:48:43.718Z,6.00
2022-12-22T11:51:13.742Z,7.38
2022-12-22T11:53:43.814Z,6.05
2022-12-22T11:56:33.576Z,9.00
2022-12-22T11:59:35.166Z,5.38
2022-12-22T12:04:56.201Z,4.00
2022-12-22T12:07:28.100Z,3.15
2022-12-22T12:10:15.121Z,2.78
2022-12-22T12:13:12.726Z,6.35
2022-12-22T12:15:48.657Z,3.92
2022-12-22T12:18:27.367Z,4.93
2022-12-22T12:21:38.535Z,3.42
2022-12-22T12:24:49.966Z,4.72
2022-12-22T12:27:56.391Z,4.20
2022-12-22T12:30:40.174Z,6.20
2022-12-22T12:33:16.499Z,3.42
2022-12-22T12:35:49.309Z,4.10
2022-12-22T12:39:07.585Z,5.15
2022-12-22T12:41:40.182Z,6.13
2022-12-22T12:44:13.968Z,4.05
2022-12-22T12:46:53.162Z,5.07
2022-12-22T12:49:35.145Z,3.40
2022-12-22T12:52:02.927Z,6.53
2022-12-22T12:54:29.498Z,6.03
2022-12-22T12:56:59.265Z,6.00
2022-12-22T12:59:40.994Z,7.50
2022-12-22T13:02:39.730Z,5.35
2022-12-22T13:05:12.593Z,6.78
2022-12-22T13:08:08.564Z,6.30
2022-12-22T13:10:40.278Z,6.47
2022-12-22T13:13:11.262Z,5.30
2022-12-22T13:15:42.824Z,5.85
2022-12-22T13:21:51.703Z,5.35
2022-12-22T13:24:29.869Z,4.70
2022-12-22T13:27:04.778Z,5.97
2022-12-22T13:29:44.604Z,4.53
2022-12-22T13:32:19.099Z,3.80
2022-12-22T13:35:34.015Z,5.13
2022-12-22T13:38:02.922Z,3.25
2022-12-22T13:40:32.377Z,4.68
2022-12-22T13:43:05.594Z,6.35
2022-12-22T13:45:41.676Z,2.67
2022-12-22T13:48:14.777Z,2.88
2022-12-22T13:51:03.921Z,7.18
2022-12-22T13:54:07.348Z,4.38
2022-12-22T13:56:34.460Z,5.80
2022-12-22T13:59:02.413Z,3.85
2022-12-22T14:01:29.700Z,4.05
2022-12-22T14:04:04.365Z,6.55
2022-12-22T14:06:34.673Z,6.57
2022-12-22T14:09:19.213Z,6.55
2022-12-22T14:12:02.113Z,4.95
2022-12-22T14:14:34.691Z,4.35
2022-12-22T14:17:02.597Z,4.25
2022-12-22T14:19:34.152Z,6.60
2022-12-22T14:22:10.708Z,6.00
2022-12-22T14:24:50.747Z,4.45
2022-12-22T14:27:36.109Z,9.80
2022-12-22T14:30:06.261Z,4.70
2022-12-22T14:32:37.610Z,6.38
2022-12-22T14:35:16.220Z,4.25
2022-12-22T14:37:42.882Z,7.13
2022-12-22T14:40:29.167Z,4.72
2022-12-22T14:42:57.454Z,8.52
2022-12-22T14:45:25.581Z,7.00
2022-12-22T14:47:54.632Z,8.13
2022-12-22T14:50:30.461Z,6.50
2022-12-22T14:53:00.192Z,6.60
2022-12-22T14:55:26.979Z,4.32
2022-12-22T14:57:59.372Z,7.00
2022-12-22T15:00:35.603Z,8.50
2022-12-22T15:03:27.118Z,6.43
2022-12-22T15:05:54.125Z,9.73
2022-12-22T15:08:40.708Z,7.07
2022-12-22T15:11:19.065Z,5.97
2022-12-22T15:13:49.228Z,6.60
2022-12-22T15:16:19.591Z,6.43
2022-12-22T15:18:47.400Z,7.22
2022-12-22T15:21:16.939Z,6.00
2022-12-22T15:23:44.393Z,9.07
2022-12-22T15:26:11.590Z,5.97
2022-12-22T15:28:38.759Z,7.13
2022-12-22T15:31:14.216Z,5.88
2022-12-22T15:33:42.063Z,8.50
2022-12-22T15:36:13.799Z,9.10
2022-12-22T15:38:41.425Z,9.18
2022-12-22T15:41:08.206Z,7.55
2022-12-22T15:46:23.060Z,10.70
2022-12-22T15:48:50.040Z,8.32
2022-12-22T15:51:26.773Z,8.35
2022-12-22T15:53:55.190Z,11.23
2022-12-22T15:56:25.136Z,7.72
2022-12-22T15:58:52.577Z,9.60
2022-12-22T16:01:19.344Z,12.20
2022-12-22T16:03:46.541Z,10.65
2022-12-22T16:06:16.078Z,9.85
2022-12-22T16:08:51.971Z,10.80
2022-12-22T16:11:19.112Z,10.32
2022-12-22T16:13:47.992Z,10.55
2022-12-22T16:16:15.003Z,8.48
2022-12-22T16:18:41.758Z,8.90
2022-12-22T16:21:15.869Z,8.65
2022-12-22T16:23:47.151Z,10.25
2022-12-22T16:26:20.249Z,9.88
2022-12-22T16:28:47.462Z,15.10
2022-12-22T16:31:22.897Z,12.80
2022-12-22T16:33:50.549Z,13.10
2022-12-22T16:36:17.685Z,12.45
2022-12-22T16:38:45.935Z,10.95
2022-12-22T16:41:19.974Z,11.35
2022-12-22T16:46:38.086Z,10.82
2022-12-22T16:49:08.239Z,11.65
2022-12-22T16:51:40.352Z,11.70
2022-12-22T16:54:07.233Z,10.50
2022-12-22T16:56:34.928Z,11.68
2022-12-22T16:59:04.570Z,12.30
2022-12-22T17:01:31.430Z,11.63
2022-12-22T17:04:02.823Z,13.27
2022-12-22T17:06:29.699Z,11.70
2022-12-22T17:08:56.372Z,12.93
2022-12-22T17:11:25.200Z,14.18
2022-12-22T17:13:54.693Z,12.15
2022-12-22T17:16:23.119Z,13.82
2022-12-22T17:18:50.186Z,12.55
2022-12-22T17:21:19.666Z,15.98
2022-12-22T17:23:50.456Z,17.52
2022-12-22T17:26:21.192Z,15.68
2022-12-22T17:28:48.938Z,17.77
2022-12-22T17:31:18.027Z,13.65
2022-12-22T17:33:44.771Z,14.45
2022-12-22T17:36:20.000Z,16.20
2022-12-22T17:38:46.807Z,14.80
2022-12-22T17:41:15.764Z,13.27
2022-12-22T17:43:42.880Z,13.43
2022-12-22T17:46:17.487Z,16.38
2022-12-22T17:48:45.336Z,14.15
2022-12-22T17:51:38.275Z,15.00
2022-12-22T17:54:05.274Z,17.77
2022-12-22T17:56:32.041Z,13.43
2022-12-22T17:58:58.772Z,14.10
2022-12-22T18:01:28.716Z,14.40
2022-12-22T18:03:56.577Z,21.77
2022-12-22T18:06:27.834Z,20.77
2022-12-22T18:08:56.272Z,19.45
2022-12-22T18:11:25.156Z,19.80
2022-12-22T18:13:53.268Z,17.05
2022-12-22T18:16:21.591Z,19.60
2022-12-22T18:18:48.368Z,15.52
2022-12-22T18:21:18.332Z,14.13
2022-12-22T18:23:50.028Z,13.85
2022-12-22T18:26:21.931Z,13.73
2022-12-22T18:28:49.356Z,18.98
2022-12-22T18:31:16.213Z,14.55
2022-12-22T18:33:42.844Z,13.50
2022-12-22T18:36:17.574Z,14.50
2022-12-22T18:38:45.952Z,15.32
2022-12-22T18:41:24.436Z,14.80
2022-12-22T18:43:51.656Z,14.02
2022-12-22T18:46:19.290Z,14.07
2022-12-22T18:48:47.378Z,18.13
2022-12-22T18:51:22.906Z,14.38
2022-12-22T18:53:50.785Z,16.25
2022-12-22T18:56:18.193Z,13.43
2022-12-22T18:58:46.305Z,17.20
2022-12-22T19:01:26.026Z,14.85
2022-12-22T19:03:57.436Z,12.50
2022-12-22T19:06:24.523Z,13.77
2022-12-22T19:08:51.747Z,13.43
2022-12-22T19:11:24.598Z,17.13
2022-12-22T19:13:52.552Z,16.33
2022-12-22T19:16:26.232Z,13.30
2022-12-22T19:18:53.136Z,15.60
2022-12-22T19:21:20.447Z,14.65
2022-12-22T19:23:47.222Z,15.95
2022-12-22T19:26:25.604Z,17.52
2022-12-22T19:29:00.502Z,14.63
2022-12-22T19:31:31.129Z,13.38
2022-12-22T19:34:04.365Z,16.95
2022-12-22T19:36:33.388Z,15.30
2022-12-22T19:39:04.566Z,15.88
2022-12-22T19:41:52.672Z,15.65
2022-12-22T19:44:28.573Z,11.57
2022-12-22T19:46:57.428Z,14.80
2022-12-22T19:49:27.337Z,12.82
2022-12-22T19:51:55.776Z,10.82
2022-12-22T19:54:23.317Z,12.10
2022-12-22T19:56:53.374Z,15.32
2022-12-22T19:59:32.384Z,16.35
2022-12-22T20:02:03.200Z,13.45
2022-12-22T20:04:30.285Z,12.10
2022-12-22T20:06:56.890Z,14.20
2022-12-22T20:09:23.417Z,13.45
2022-12-22T20:11:50.124Z,13.95
2022-12-22T20:14:17.970Z,13.55
2022-12-22T20:16:45.289Z,10.98
2022-12-22T20:19:15.007Z,11.30
2022-12-22T20:21:42.385Z,11.00
2022-12-22T20:24:19.665Z,10.50
2022-12-22T20:26:52.014Z,10.95
2022-12-22T20:29:21.130Z,11.68
2022-12-22T20:31:47.983Z,9.45
2022-12-22T20:34:14.764Z,7.10
2022-12-22T20:36:43.486Z,9.60
2022-12-22T20:39:16.439Z,8.90
2022-12-22T20:41:47.043Z,6.13
2022-12-22T20:44:17.369Z,7.18
2022-12-22T20:46:44.167Z,7.38
2022-12-22T20:49:15.039Z,6.25
2022-12-22T20:51:42.273Z,7.65
2022-12-22T20:54:14.362Z,7.72
2022-12-22T20:56:44.110Z,7.65
2022-12-22T20:59:22.801Z,8.13
2022-12-22T21:01:51.546Z,7.78
2022-12-22T21:04:18.971Z,5.55
2022-12-22T21:06:57.066Z,6.15
2022-12-22T21:09:24.184Z,4.40
2022-12-22T21:11:50.940Z,5.97
2022-12-22T21:14:17.614Z,7.85
2022-12-22T21:16:44.385Z,6.07
2022-12-22T21:19:19.361Z,4.72
2022-12-22T21:21:46.588Z,6.50
2022-12-22T21:24:13.618Z,5.05
2022-12-22T21:26:45.883Z,6.10
2022-12-22T21:29:21.812Z,8.25
2022-12-22T21:31:48.615Z,6.00
2022-12-22T21:34:15.582Z,5.38
2022-12-22T21:36:44.065Z,7.95
2022-12-22T21:39:23.617Z,6.25
2022-12-22T21:42:04.669Z,5.90
2022-12-22T21:44:35.208Z,4.07
2022-12-22T21:47:02.793Z,6.53
2022-12-22T21:49:31.944Z,5.18
2022-12-22T21:51:59.121Z,4.78
2022-12-22T21:54:26.701Z,3.42
2022-12-22T21:56:54.111Z,5.82
2022-12-22T21:59:22.023Z,4.97
2022-12-22T22:01:52.594Z,3.20
2022-12-22T22:04:20.230Z,5.32
2022-12-22T22:06:47.080Z,3.63
2022-12-22T22:09:13.946Z,3.35
2022-12-22T22:11:59.128Z,3.80
2022-12-22T22:14:26.896Z,4.75
2022-12-22T22:16:53.978Z,3.50
2022-12-22T22:19:20.549Z,3.60
2022-12-22T22:21:47.501Z,6.32
2022-12-22T22:24:14.082Z,3.13
2022-12-22T22:26:40.617Z,4.35
2022-12-22T22:29:07.502Z,2.85
2022-12-22T22:31:34.121Z,3.97
2022-12-22T22:34:00.769Z,6.45
2022-12-22T22:36:27.310Z,5.05
2022-12-22T22:38:54.397Z,4.50
2022-12-22T22:41:21.107Z,3.60
2022-12-22T22:43:47.688Z,2.55
2022-12-22T22:46:14.419Z,2.45
2022-12-22T22:48:41.084Z,2.10
2022-12-22T22:51:10.725Z,4.70
2022-12-22T22:53:37.276Z,2.35
2022-12-22T22:56:04.089Z,2.22
2022-12-22T22:58:30.719Z,2.17
2022-12-22T23:01:07.639Z,2.60
2022-12-22T23:03:34.983Z,2.17
2022-12-22T23:06:03.002Z,1.10
2022-12-22T23:08:30.567Z,3.42
2022-12-22T23:10:57.921Z,2.47
2022-12-22T23:13:24.571Z,3.30
2022-12-22T23:15:59.371Z,1.00
2022-12-22T23:18:27.062Z,6.15
2022-12-22T23:20:54.025Z,2.60
2022-12-22T23:23:20.683Z,2.10
2022-12-22T23:25:50.142Z,1.23
2022-12-22T23:28:18.077Z,4.65
2022-12-22T23:30:47.927Z,2.70
2022-12-22T23:33:14.581Z,1.13
2022-12-22T23:35:42.232Z,2.20
2022-12-22T23:38:09.809Z,1.70
2022-12-22T23:40:54.567Z,2.47
2022-12-22T23:43:21.788Z,0.68
2022-12-22T23:45:48.406Z,2.50
2022-12-22T23:48:15.057Z,2.47
2022-12-22T23:50:41.984Z,1.48
2022-12-22T23:53:08.605Z,1.35
2022-12-22T23:55:35.218Z,1.55
2022-12-22T23:58:01.925Z,2.45
